createdAt,value
2022-11-25T00:00:27.012Z,20.74
2022-11-25T00:02:53.532Z,20.72
2022-11-25T00:05:19.986Z,20.71
2022-11-25T00:07:46.516Z,20.74
2022-11-25T00:10:13.075Z,20.71
2022-11-25T00:12:39.479Z,20.70
2022-11-25T00:15:05.887Z,20.69
2022-11-25T00:17:32.350Z,20.70
2022-11-25T00:19:58.752Z,20.70
2022-11-25T00:22:25.196Z,20.70
2022-11-25T00:24:51.609Z,20.73
2022-11-25T00:27:18.054Z,20.71
2022-11-25T00:29:44.495Z,20.74
2022-11-25T00:32:10.966Z,20.72
2022-11-25T00:34:37.539Z,20.69
2022-11-25T00:37:04.038Z,20.73
2022-11-25T00:39:30.504Z,20.71
2022-11-25T00:41:56.891Z,20.72
2022-11-25T00:44:23.259Z,20.73
2022-11-25T00:46:49.646Z,20.72
2022-11-25T00:49:16.029Z,20.67
2022-11-25T00:51:42.453Z,20.71
2022-11-25T00:54:08.843Z,20.68
2022-11-25T00:56:35.252Z,20.66
2022-11-25T00:59:01.684Z,20.68
2022-11-25T01:01:28.437Z,20.68
2022-11-25T01:03:54.949Z,20.70
2022-11-25T01:06:21.342Z,20.71
2022-11-25T01:08:47.723Z,20.70
2022-11-25T01:11:14.097Z,20.72
2022-11-25T01:13:40.481Z,20.68
2022-11-25T01:16:06.927Z,20.66
2022-11-25T01:18:33.356Z,20.68
2022-11-25T01:20:59.740Z,20.68
2022-11-25T01:23:26.229Z,20.67
2022-11-25T01:25:52.736Z,20.70
2022-11-25T01:28:19.148Z,20.71
2022-11-25T01:30:45.742Z,20.67
2022-11-25T01:33:12.213Z,20.68
2022-11-25T01:35:38.664Z,20.71
2022-11-25T01:38:05.077Z,20.70
2022-11-25T01:40:31.456Z,20.71
2022-11-25T01:42:57.852Z,20.73
2022-11-25T01:45:28.372Z,20.71
2022-11-25T01:47:55.060Z,20.67
2022-11-25T01:50:21.503Z,20.68
2022-11-25T01:52:47.910Z,20.67
2022-11-25T01:55:14.530Z,20.69
2022-11-25T01:57:40.925Z,20.62
2022-11-25T02:00:07.271Z,20.68
2022-11-25T02:02:33.778Z,20.67
2022-11-25T02:05:00.442Z,20.61
2022-11-25T02:07:27.061Z,20.64
2022-11-25T02:09:53.524Z,20.64
2022-11-25T02:12:19.968Z,20.65
2022-11-25T02:14:46.403Z,20.66
2022-11-25T02:17:12.831Z,20.64
2022-11-25T02:19:39.256Z,20.67
2022-11-25T02:22:05.669Z,20.67
2022-11-25T02:24:32.072Z,20.67
2022-11-25T02:26:58.494Z,20.62
2022-11-25T02:29:24.858Z,20.66
2022-11-25T02:31:51.310Z,20.68
2022-11-25T02:34:17.757Z,20.67
2022-11-25T02:36:44.151Z,20.62
2022-11-25T02:39:10.540Z,20.64
2022-11-25T02:41:36.989Z,20.65
2022-11-25T02:44:03.409Z,20.64
2022-11-25T02:46:29.857Z,20.66
2022-11-25T02:49:11.696Z,20.66
2022-11-25T02:51:38.247Z,20.67
2022-11-25T02:54:04.613Z,20.66
2022-11-25T02:56:31.056Z,20.62
2022-11-25T02:58:57.456Z,20.61
2022-11-25T03:01:23.986Z,20.63
2022-11-25T03:03:50.401Z,20.63
2022-11-25T03:06:16.774Z,20.60
2022-11-25T03:08:43.142Z,20.63
2022-11-25T03:11:09.531Z,20.65
2022-11-25T03:13:35.900Z,20.65
2022-11-25T03:16:02.349Z,20.67
2022-11-25T03:18:28.705Z,20.66
2022-11-25T03:20:55.070Z,20.63
2022-11-25T03:23:21.460Z,20.64
2022-11-25T03:25:47.866Z,20.62
2022-11-25T03:28:14.429Z,20.63
2022-11-25T03:30:40.811Z,20.60
2022-11-25T03:33:07.291Z,20.58
2022-11-25T03:35:33.688Z,20.61
2022-11-25T03:38:00.093Z,20.63
2022-11-25T03:40:26.465Z,20.64
2022-11-25T03:42:52.943Z,20.63
2022-11-25T03:45:19.304Z,20.62
2022-11-25T03:47:45.691Z,20.61
2022-11-25T03:50:12.207Z,20.60
2022-11-25T03:52:38.615Z,20.62
2022-11-25T03:55:05.010Z,20.57
2022-11-25T03:57:31.379Z,20.53
2022-11-25T03:59:57.727Z,20.55
2022-11-25T04:02:24.257Z,20.48
2022-11-25T04:04:50.739Z,20.53
2022-11-25T04:07:17.194Z,20.58
2022-11-25T04:09:43.681Z,20.60
2022-11-25T04:12:10.084Z,20.59
2022-11-25T04:14:36.734Z,20.59
2022-11-25T04:17:03.309Z,20.58
2022-11-25T04:19:29.766Z,20.57
2022-11-25T04:21:56.116Z,20.61
2022-11-25T04:24:22.529Z,20.62
2022-11-25T04:26:48.897Z,20.60
2022-11-25T04:29:15.295Z,20.59
2022-11-25T04:31:41.673Z,20.58
2022-11-25T04:34:08.120Z,20.57
2022-11-25T04:36:34.580Z,20.57
2022-11-25T04:39:00.978Z,20.61
2022-11-25T04:41:27.432Z,20.56
2022-11-25T04:43:53.786Z,20.56
2022-11-25T04:46:20.196Z,20.59
2022-11-25T04:48:46.714Z,20.53
2022-11-25T04:51:13.071Z,20.52
2022-11-25T04:53:39.504Z,20.45
2022-11-25T04:56:05.855Z,20.48
2022-11-25T04:58:32.211Z,20.47
2022-11-25T05:00:58.649Z,20.51
2022-11-25T05:03:25.042Z,20.55
2022-11-25T05:05:51.483Z,20.57
2022-11-25T05:08:17.843Z,20.59
2022-11-25T05:10:44.197Z,20.60
2022-11-25T05:13:10.560Z,20.57
2022-11-25T05:15:36.920Z,20.60
2022-11-25T05:18:03.342Z,20.65
2022-11-25T05:20:29.705Z,20.66
2022-11-25T05:22:56.061Z,20.67
2022-11-25T05:25:22.477Z,20.69
2022-11-25T05:27:48.821Z,20.67
2022-11-25T05:30:15.169Z,20.68
2022-11-25T05:32:41.527Z,20.68
2022-11-25T05:35:07.909Z,20.68
2022-11-25T05:37:34.268Z,20.67
2022-11-25T05:40:00.614Z,20.60
2022-11-25T05:42:26.953Z,20.52
2022-11-25T05:44:53.345Z,20.55
2022-11-25T05:47:19.732Z,20.74
2022-11-25T05:49:46.129Z,20.80
2022-11-25T05:52:12.602Z,20.95
2022-11-25T05:54:39.199Z,20.98
2022-11-25T05:57:05.703Z,21.02
2022-11-25T05:59:32.136Z,21.04
2022-11-25T06:01:58.559Z,20.89
2022-11-25T06:04:24.974Z,20.96
2022-11-25T06:06:51.357Z,21.01
2022-11-25T06:09:17.709Z,20.97
2022-11-25T06:11:44.087Z,20.94
2022-11-25T06:14:10.477Z,20.94
2022-11-25T06:16:36.986Z,20.94
2022-11-25T06:19:03.361Z,20.93
2022-11-25T06:21:29.724Z,20.89
2022-11-25T06:23:56.108Z,20.89
2022-11-25T06:26:22.478Z,20.90
2022-11-25T06:28:48.994Z,20.90
2022-11-25T06:31:15.416Z,20.90
2022-11-25T06:33:41.889Z,20.84
2022-11-25T06:36:08.267Z,20.86
2022-11-25T06:38:34.684Z,20.89
2022-11-25T06:41:01.075Z,20.89
2022-11-25T06:43:27.473Z,20.85
2022-11-25T06:45:53.931Z,20.85
2022-11-25T06:48:20.312Z,20.83
2022-11-25T06:50:46.691Z,20.84
2022-11-25T06:53:13.087Z,20.82
2022-11-25T06:55:39.473Z,20.85
2022-11-25T06:58:33.970Z,20.84
2022-11-25T07:00:52.310Z,20.81
2022-11-25T07:03:18.732Z,20.82
2022-11-25T07:05:45.154Z,20.80
2022-11-25T07:08:11.608Z,20.80
2022-11-25T07:10:38.030Z,20.81
2022-11-25T07:13:04.425Z,20.80
2022-11-25T07:15:30.885Z,20.79
2022-11-25T07:17:57.314Z,20.75
2022-11-25T07:20:23.677Z,20.78
2022-11-25T07:22:50.078Z,20.78
2022-11-25T07:25:16.443Z,20.80
2022-11-25T07:27:42.794Z,20.82
2022-11-25T07:32:55.780Z,20.80
2022-11-25T07:35:22.252Z,20.82
2022-11-25T07:37:48.672Z,20.81
2022-11-25T07:40:15.056Z,20.82
2022-11-25T07:42:41.433Z,20.80
2022-11-25T07:45:07.867Z,20.78
2022-11-25T07:47:34.222Z,20.76
2022-11-25T07:50:00.681Z,20.79
2022-11-25T07:52:27.015Z,20.78
2022-11-25T07:54:53.424Z,20.76
2022-11-25T07:57:19.852Z,20.76
2022-11-25T07:59:46.248Z,20.77
2022-11-25T08:02:12.684Z,20.77
2022-11-25T08:04:39.165Z,20.79
2022-11-25T08:07:05.611Z,20.78
2022-11-25T08:09:32.102Z,20.78
2022-11-25T08:11:58.522Z,20.71
2022-11-25T08:14:24.954Z,20.75
2022-11-25T08:16:51.354Z,20.77
2022-11-25T08:19:17.747Z,20.80
2022-11-25T08:21:44.138Z,20.76
2022-11-25T08:24:10.622Z,20.77
2022-11-25T08:26:36.988Z,20.74
2022-11-25T08:29:03.393Z,20.77
2022-11-25T08:31:29.890Z,20.74
2022-11-25T08:33:56.340Z,20.75
2022-11-25T08:36:22.725Z,20.75
2022-11-25T08:38:49.108Z,20.81
2022-11-25T08:41:15.497Z,20.75
2022-11-25T08:43:41.877Z,20.72
2022-11-25T08:46:08.504Z,20.74
2022-11-25T08:48:34.932Z,20.79
2022-11-25T08:51:01.467Z,20.76
2022-11-25T08:53:27.827Z,20.78
2022-11-25T08:55:54.224Z,20.78
2022-11-25T08:58:20.592Z,20.82
2022-11-25T09:00:46.981Z,20.79
2022-11-25T09:03:13.427Z,20.81
2022-11-25T09:05:39.843Z,20.80
2022-11-25T09:08:06.257Z,20.76
2022-11-25T09:10:32.703Z,20.83
2022-11-25T09:12:59.135Z,20.81
2022-11-25T09:15:25.575Z,20.80
2022-11-25T09:17:51.995Z,20.79
2022-11-25T09:20:18.386Z,20.82
2022-11-25T09:22:44.774Z,20.84
2022-11-25T09:25:11.140Z,20.78
2022-11-25T09:27:37.565Z,20.78
2022-11-25T09:30:03.969Z,20.75
2022-11-25T09:32:30.330Z,20.81
2022-11-25T09:34:56.683Z,20.79
2022-11-25T09:37:23.084Z,20.77
2022-11-25T09:39:49.465Z,20.77
2022-11-25T09:42:15.854Z,20.83
2022-11-25T09:44:42.215Z,20.83
2022-11-25T09:47:08.567Z,20.82
2022-11-25T09:49:35.257Z,20.81
2022-11-25T09:52:01.960Z,20.76
2022-11-25T09:54:28.336Z,20.77
2022-11-25T09:56:54.715Z,20.81
2022-11-25T09:59:21.109Z,20.77
2022-11-25T10:01:47.531Z,20.76
2022-11-25T10:04:13.969Z,20.80
2022-11-25T10:06:40.524Z,20.80
2022-11-25T10:09:07.049Z,20.86
2022-11-25T10:11:33.592Z,20.80
2022-11-25T10:13:59.938Z,20.81
2022-11-25T10:16:26.387Z,20.79
2022-11-25T10:18:52.784Z,20.79
2022-11-25T10:21:19.172Z,20.74
2022-11-25T10:23:45.576Z,20.76
2022-11-25T10:26:11.960Z,20.85
2022-11-25T10:28:38.331Z,20.81
2022-11-25T10:31:04.792Z,20.90
2022-11-25T10:33:31.224Z,20.88
2022-11-25T10:35:57.616Z,20.83
2022-11-25T10:38:23.989Z,20.81
2022-11-25T10:40:50.338Z,20.82
2022-11-25T10:43:16.735Z,20.91
2022-11-25T10:45:43.122Z,20.85
2022-11-25T10:48:09.490Z,20.78
2022-11-25T10:50:35.923Z,20.80
2022-11-25T10:53:02.304Z,20.80
2022-11-25T10:55:28.728Z,20.79
2022-11-25T10:57:55.080Z,20.75
2022-11-25T11:00:21.443Z,20.77
2022-11-25T11:02:50.883Z,20.78
2022-11-25T11:05:17.264Z,20.76
2022-11-25T11:07:43.800Z,20.76
2022-11-25T11:10:10.485Z,20.74
2022-11-25T11:12:36.983Z,20.77
2022-11-25T11:15:03.475Z,20.77
2022-11-25T11:17:35.847Z,20.76
2022-11-25T11:20:02.663Z,20.79
2022-11-25T11:22:29.016Z,20.78
2022-11-25T11:24:55.422Z,20.77
2022-11-25T11:27:21.769Z,20.71
2022-11-25T11:29:48.170Z,20.75
2022-11-25T11:32:14.538Z,20.70
2022-11-25T11:34:40.936Z,20.75
2022-11-25T11:37:07.339Z,20.76
2022-11-25T11:39:33.718Z,20.73
2022-11-25T11:42:00.087Z,20.77
2022-11-25T11:44:26.491Z,20.80
2022-11-25T11:46:52.871Z,20.78
2022-11-25T11:49:19.503Z,20.81
2022-11-25T11:51:45.911Z,20.80
2022-11-25T11:54:12.302Z,20.74
2022-11-25T11:56:38.642Z,20.76
2022-11-25T11:59:05.011Z,20.83
2022-11-25T12:01:31.435Z,20.76
2022-11-25T12:03:57.867Z,20.77
2022-11-25T12:06:24.425Z,20.83
2022-11-25T12:08:50.835Z,20.88
2022-11-25T12:11:17.376Z,20.81
2022-11-25T12:13:43.968Z,20.85
2022-11-25T12:16:10.429Z,20.89
2022-11-25T12:18:36.877Z,20.81
2022-11-25T12:21:03.261Z,20.84
2022-11-25T12:23:29.639Z,20.83
2022-11-25T12:25:55.980Z,20.88
2022-11-25T12:28:22.358Z,20.83
2022-11-25T12:30:48.858Z,20.89
2022-11-25T12:33:15.271Z,20.77
2022-11-25T12:35:41.750Z,20.79
2022-11-25T12:38:08.116Z,20.79
2022-11-25T12:40:34.459Z,20.75
2022-11-25T12:43:00.831Z,20.71
2022-11-25T12:45:27.318Z,20.79
2022-11-25T12:47:53.768Z,20.75
2022-11-25T12:50:20.154Z,20.81
2022-11-25T12:52:46.513Z,20.75
2022-11-25T12:55:14.737Z,20.80
2022-11-25T12:57:47.408Z,20.78
2022-11-25T13:00:40.312Z,20.73
2022-11-25T13:03:01.658Z,20.73
2022-11-25T13:05:43.423Z,20.69
2022-11-25T13:08:09.807Z,20.68
2022-11-25T13:10:36.212Z,20.62
2022-11-25T13:13:03.028Z,20.63
2022-11-25T13:15:30.265Z,20.69
2022-11-25T13:17:57.040Z,20.74
2022-11-25T13:20:23.568Z,20.74
2022-11-25T13:22:49.927Z,20.69
2022-11-25T13:25:16.305Z,20.65
2022-11-25T13:27:42.692Z,20.74
2022-11-25T13:30:09.133Z,20.70
2022-11-25T13:32:35.522Z,20.67
2022-11-25T13:35:01.962Z,20.67
2022-11-25T13:37:32.218Z,20.66
2022-11-25T13:40:01.389Z,20.70
2022-11-25T13:42:27.797Z,20.64
2022-11-25T13:44:54.182Z,20.62
2022-11-25T13:47:20.633Z,20.66
2022-11-25T13:49:47.006Z,20.62
2022-11-25T13:52:13.589Z,20.66
2022-11-25T13:54:40.127Z,20.70
2022-11-25T13:57:06.606Z,20.68
2022-11-25T13:59:32.976Z,20.66
2022-11-25T14:01:59.340Z,20.66
2022-11-25T14:04:25.768Z,20.68
2022-11-25T14:06:52.135Z,20.70
2022-11-25T14:09:18.542Z,20.71
2022-11-25T14:11:44.908Z,20.68
2022-11-25T14:14:11.359Z,20.66
2022-11-25T14:16:37.829Z,20.68
2022-11-25T14:19:35.237Z,20.69
2022-11-25T14:21:50.582Z,20.68
2022-11-25T14:24:16.966Z,20.69
2022-11-25T14:26:49.744Z,20.68
2022-11-25T14:29:16.685Z,20.67
2022-11-25T14:31:43.155Z,20.69
2022-11-25T14:34:09.572Z,20.71
2022-11-25T14:36:35.946Z,20.64
2022-11-25T14:39:02.346Z,20.66
2022-11-25T14:41:28.714Z,20.64
2022-11-25T14:43:55.082Z,20.70
2022-11-25T14:46:21.637Z,20.71
2022-11-25T14:48:48.185Z,20.68
2022-11-25T14:51:14.712Z,20.67
2022-11-25T14:53:47.288Z,20.67
2022-11-25T14:56:14.418Z,20.71
2022-11-25T14:58:40.801Z,20.67
2022-11-25T15:01:07.174Z,20.62
2022-11-25T15:03:33.666Z,20.60
2022-11-25T15:06:00.093Z,20.63
2022-11-25T15:08:26.489Z,20.67
2022-11-25T15:10:52.904Z,20.60
2022-11-25T15:13:19.467Z,20.61
2022-11-25T15:15:45.833Z,20.64
2022-11-25T15:18:12.219Z,20.64
2022-11-25T15:20:38.784Z,20.66
2022-11-25T15:23:05.169Z,20.63
2022-11-25T15:25:31.546Z,20.62
2022-11-25T15:27:58.021Z,20.56
2022-11-25T15:30:24.637Z,20.53
2022-11-25T15:32:51.051Z,20.63
2022-11-25T15:35:17.648Z,20.62
2022-11-25T15:37:44.010Z,20.65
2022-11-25T15:40:10.463Z,20.64
2022-11-25T15:42:36.891Z,20.61
2022-11-25T15:45:07.170Z,20.56
2022-11-25T15:47:34.914Z,20.58
2022-11-25T15:50:01.388Z,20.55
2022-11-25T15:52:27.835Z,20.59
2022-11-25T15:54:54.284Z,20.59
2022-11-25T15:57:20.721Z,20.61
2022-11-25T15:59:47.186Z,20.60
2022-11-25T16:02:13.638Z,20.60
2022-11-25T16:04:40.360Z,20.63
2022-11-25T16:07:06.790Z,20.61
2022-11-25T16:09:33.167Z,20.55
2022-11-25T16:11:59.517Z,20.50
2022-11-25T16:14:25.955Z,20.54
2022-11-25T16:16:52.457Z,20.54
2022-11-25T16:19:18.914Z,20.57
2022-11-25T16:21:45.572Z,20.57
2022-11-25T16:24:12.051Z,20.55
2022-11-25T16:26:38.544Z,20.56
2022-11-25T16:29:04.965Z,20.55
2022-11-25T16:31:31.416Z,20.55
2022-11-25T16:34:01.165Z,20.54
2022-11-25T16:36:27.721Z,20.51
2022-11-25T16:38:54.449Z,20.55
2022-11-25T16:41:20.942Z,20.60
2022-11-25T16:43:47.286Z,20.54
2022-11-25T16:46:13.727Z,20.54
2022-11-25T16:48:40.167Z,20.53
2022-11-25T16:51:06.539Z,20.52
2022-11-25T16:53:32.912Z,20.58
2022-11-25T16:55:59.314Z,20.57
2022-11-25T16:58:25.694Z,20.58
2022-11-25T17:00:52.119Z,20.58
2022-11-25T17:03:18.661Z,20.54
2022-11-25T17:05:45.088Z,20.57
2022-11-25T17:08:11.498Z,20.56
2022-11-25T17:10:37.928Z,20.60
2022-11-25T17:13:04.454Z,20.60
2022-11-25T17:15:31.114Z,20.57
2022-11-25T17:17:57.634Z,20.53
2022-11-25T17:20:23.987Z,20.54
2022-11-25T17:22:50.420Z,20.55
2022-11-25T17:25:16.758Z,20.58
2022-11-25T17:27:43.237Z,20.58
2022-11-25T17:30:09.603Z,20.54
2022-11-25T17:32:36.015Z,20.55
2022-11-25T17:35:02.423Z,20.57
2022-11-25T17:37:28.846Z,20.54
2022-11-25T17:39:55.405Z,20.57
2022-11-25T17:42:21.829Z,20.54
2022-11-25T17:44:52.859Z,20.55
2022-11-25T17:47:20.555Z,20.55
2022-11-25T17:49:46.939Z,20.52
2022-11-25T17:52:13.335Z,20.55
2022-11-25T17:54:40.247Z,20.57
2022-11-25T17:57:06.822Z,20.52
2022-11-25T17:59:33.231Z,20.53
2022-11-25T18:01:59.655Z,20.52
2022-11-25T18:04:26.257Z,20.51
2022-11-25T18:06:52.666Z,20.53
2022-11-25T18:09:19.017Z,20.54
2022-11-25T18:11:46.641Z,20.53
2022-11-25T18:14:13.397Z,20.53
2022-11-25T18:16:39.910Z,20.51
2022-11-25T18:19:06.502Z,20.55
2022-11-25T18:21:32.845Z,20.51
2022-11-25T18:23:59.301Z,20.53
2022-11-25T18:26:25.738Z,20.55
2022-11-25T18:28:52.263Z,20.56
2022-11-25T18:31:18.732Z,20.54
2022-11-25T18:33:45.170Z,20.50
2022-11-25T18:36:11.602Z,20.52
2022-11-25T18:38:37.977Z,20.55
2022-11-25T18:41:04.357Z,20.54
2022-11-25T18:43:30.727Z,20.50
2022-11-25T18:45:57.206Z,20.49
2022-11-25T18:48:23.765Z,20.52
2022-11-25T18:50:50.141Z,20.49
2022-11-25T18:53:16.534Z,20.52
2022-11-25T18:55:42.911Z,20.50
2022-11-25T18:58:09.378Z,20.51
2022-11-25T19:00:35.802Z,20.49
2022-11-25T19:03:02.300Z,20.54
2022-11-25T19:05:28.913Z,20.52
2022-11-25T19:07:55.366Z,20.50
2022-11-25T19:10:21.738Z,20.56
2022-11-25T19:12:48.102Z,20.47
2022-11-25T19:15:14.623Z,20.51
2022-11-25T19:17:41.004Z,20.51
2022-11-25T19:20:07.616Z,20.51
2022-11-25T19:22:34.022Z,20.48
2022-11-25T19:25:00.391Z,20.52
2022-11-25T19:27:26.795Z,20.54
2022-11-25T19:29:53.181Z,20.53
2022-11-25T19:32:19.902Z,20.51
2022-11-25T19:34:46.322Z,20.48
2022-11-25T19:37:12.804Z,20.45
2022-11-25T19:39:39.184Z,20.51
2022-11-25T19:42:05.674Z,20.52
2022-11-25T19:44:32.047Z,20.49
2022-11-25T19:47:15.480Z,20.45
2022-11-25T19:49:42.257Z,20.51
2022-11-25T19:52:08.666Z,20.47
2022-11-25T19:54:35.349Z,20.50
2022-11-25T19:57:01.910Z,20.44
2022-11-25T19:59:28.264Z,20.47
2022-11-25T20:01:54.783Z,20.48
2022-11-25T20:04:21.245Z,20.47
2022-11-25T20:06:47.597Z,20.47
2022-11-25T20:09:13.986Z,20.46
2022-11-25T20:11:40.348Z,20.48
2022-11-25T20:14:06.717Z,20.45
2022-11-25T20:16:33.143Z,20.45
2022-11-25T20:18:59.535Z,20.50
2022-11-25T20:21:25.960Z,20.47
2022-11-25T20:23:52.322Z,20.45
2022-11-25T20:26:18.675Z,20.41
2022-11-25T20:28:45.182Z,20.42
2022-11-25T20:31:11.818Z,20.45
2022-11-25T20:33:38.374Z,20.44
2022-11-25T20:36:04.936Z,20.43
2022-11-25T20:38:31.457Z,20.44
2022-11-25T20:40:57.801Z,20.44
2022-11-25T20:43:24.257Z,20.43
2022-11-25T20:45:50.753Z,20.41
2022-11-25T20:48:17.283Z,20.44
2022-11-25T20:50:43.954Z,20.44
2022-11-25T20:53:14.405Z,20.44
2022-11-25T20:55:42.040Z,20.44
2022-11-25T20:58:08.441Z,20.41
2022-11-25T21:00:34.879Z,20.39
2022-11-25T21:03:01.272Z,20.43
2022-11-25T21:05:27.636Z,20.47
2022-11-25T21:07:54.063Z,20.43
2022-11-25T21:10:20.490Z,20.37
2022-11-25T21:12:46.891Z,20.43
2022-11-25T21:15:13.272Z,20.43
2022-11-25T21:17:39.702Z,20.38
2022-11-25T21:20:06.106Z,20.39
2022-11-25T21:22:36.758Z,20.40
2022-11-25T21:25:06.190Z,20.42
2022-11-25T21:27:32.554Z,20.42
2022-11-25T21:29:58.986Z,20.40
2022-11-25T21:32:25.417Z,20.40
2022-11-25T21:34:51.772Z,20.37
2022-11-25T21:37:18.186Z,20.39
2022-11-25T21:39:44.619Z,20.38
2022-11-25T21:42:11.025Z,20.40
2022-11-25T21:44:37.607Z,20.39
2022-11-25T21:47:04.134Z,20.37
2022-11-25T21:49:30.593Z,20.40
2022-11-25T21:51:57.041Z,20.41
2022-11-25T21:54:23.462Z,20.40
2022-11-25T21:56:49.811Z,20.34
2022-11-25T21:59:16.222Z,20.32
2022-11-25T22:01:42.605Z,20.37
2022-11-25T22:04:09.002Z,20.38
2022-11-25T22:06:35.362Z,20.38
2022-11-25T22:09:01.792Z,20.34
2022-11-25T22:11:29.496Z,20.33
2022-11-25T22:13:56.032Z,20.35
2022-11-25T22:16:22.501Z,20.37
2022-11-25T22:18:49.055Z,20.35
2022-11-25T22:21:15.440Z,20.33
2022-11-25T22:23:41.826Z,20.30
2022-11-25T22:26:08.222Z,20.32
2022-11-25T22:28:34.633Z,20.38
2022-11-25T22:31:01.041Z,20.32
2022-11-25T22:33:27.681Z,20.32
2022-11-25T22:35:54.124Z,20.34
2022-11-25T22:38:20.537Z,20.34
2022-11-25T22:40:46.943Z,20.33
2022-11-25T22:43:13.310Z,20.31
2022-11-25T22:45:39.758Z,20.29
2022-11-25T22:48:06.138Z,20.30
2022-11-25T22:50:32.603Z,20.32
2022-11-25T22:52:58.970Z,20.28
2022-11-25T22:55:25.354Z,20.31
2022-11-25T22:57:51.717Z,20.27
2022-11-25T23:00:18.106Z,20.30
2022-11-25T23:02:44.509Z,20.30
2022-11-25T23:05:10.882Z,20.30
2022-11-25T23:07:37.341Z,20.26
2022-11-25T23:10:03.993Z,20.31
2022-11-25T23:12:30.454Z,20.29
2022-11-25T23:14:56.918Z,20.28
2022-11-25T23:17:23.289Z,20.25
2022-11-25T23:19:49.661Z,20.26
2022-11-25T23:22:16.051Z,20.26
2022-11-25T23:24:42.449Z,20.24
2022-11-25T23:27:08.882Z,20.22
2022-11-25T23:29:35.235Z,20.22
2022-11-25T23:32:01.727Z,20.24
2022-11-25T23:34:28.161Z,20.25
2022-11-25T23:36:54.562Z,20.24
2022-11-25T23:39:20.931Z,20.24
2022-11-25T23:41:47.298Z,20.24
2022-11-25T23:44:13.643Z,20.25
2022-11-25T23:46:40.074Z,20.25
2022-11-25T23:49:06.455Z,20.24
2022-11-25T23:51:32.839Z,20.23
2022-11-25T23:53:59.199Z,20.23
2022-11-25T23:56:25.559Z,20.23
2022-11-25T23:58:51.933Z,20.20
